Greenville, Michigan
Current Conditions -  °F | °C
As of 8:33 PM on Thursday 27 Nov 2014 (Local Time) from KY70 Reporting Station
Overcast Overcast  
Wind Chill: 12°   Ceiling: 4200
Heat Index: 23°   Visibility: 10mi
Dew Point: 12°   Wind: 10mph
Humidity: 62%   Direction: 320°NW
Pressure: 30.32"   Gusts: NA
Location:  43.18°N, 85.25°W
Report Text: KY70 280133Z AUTO 32009KT 10SM OVC042 M05/M11 A3032 RMK AO2 T10511113
Loading
Personal Weather Stations






























Interactive Weather Map New forecast layout! Learn more

10-Day Weather Forecast

Advertisements
Track Severe Weather on mobile